createdAt,value
2022-09-30T00:01:26.833Z,100434.34
2022-09-30T00:03:55.390Z,100436.44
2022-09-30T00:06:23.861Z,100427.03
2022-09-30T00:08:51.989Z,100432.69
2022-09-30T00:11:21.721Z,100427.28
2022-09-30T00:13:51.667Z,100423.00
2022-09-30T00:16:22.208Z,100426.56
2022-09-30T00:18:51.301Z,100428.25
2022-09-30T00:21:19.214Z,100429.69
2022-09-30T00:23:47.119Z,100436.34
2022-09-30T00:26:17.645Z,100443.19
2022-09-30T00:28:46.161Z,100443.59
2022-09-30T00:31:16.864Z,100447.94
2022-09-30T00:34:06.833Z,100441.69
2022-09-30T00:36:36.382Z,100435.81
2022-09-30T00:39:05.769Z,100442.34
2022-09-30T00:41:34.362Z,100444.53
2022-09-30T00:44:02.803Z,100440.31
2022-09-30T00:46:35.826Z,100439.59
2022-09-30T00:49:11.283Z,100444.22
2022-09-30T00:51:42.338Z,100448.88
2022-09-30T00:54:11.962Z,100449.47
2022-09-30T00:56:42.017Z,100449.94
2022-09-30T00:59:12.267Z,100445.25
2022-09-30T01:01:42.326Z,100443.72
2022-09-30T01:04:15.038Z,100451.50
2022-09-30T01:06:43.752Z,100444.88
2022-09-30T01:09:12.536Z,100457.94
2022-09-30T01:11:40.948Z,100462.34
2022-09-30T01:14:11.290Z,100461.97
2022-09-30T01:16:51.726Z,100464.59
2022-09-30T01:19:37.234Z,100464.47
2022-09-30T01:22:23.079Z,100456.78
2022-09-30T01:25:16.771Z,100460.16
2022-09-30T01:28:26.565Z,100467.28
2022-09-30T01:31:09.223Z,100462.19
2022-09-30T01:33:44.184Z,100465.66
2022-09-30T01:36:29.727Z,100464.78
2022-09-30T01:39:07.078Z,100465.25
2022-09-30T01:41:42.404Z,100465.03
2022-09-30T01:44:15.728Z,100477.09
2022-09-30T01:46:47.358Z,100470.22
2022-09-30T01:49:21.712Z,100475.28
2022-09-30T01:51:54.842Z,100475.28
2022-09-30T01:54:28.004Z,100465.69
2022-09-30T01:57:00.209Z,100473.91
2022-09-30T01:59:33.528Z,100478.13
2022-09-30T02:02:08.410Z,100468.31
2022-09-30T02:04:38.721Z,100470.44
2022-09-30T02:07:09.506Z,100476.06
2022-09-30T02:09:40.510Z,100476.16
2022-09-30T02:12:10.688Z,100475.91
2022-09-30T02:14:42.717Z,100472.50
2022-09-30T02:17:16.425Z,100473.59
2022-09-30T02:19:47.136Z,100477.88
2022-09-30T02:22:17.907Z,100480.09
2022-09-30T02:24:46.249Z,100480.69
2022-09-30T02:27:17.502Z,100485.47
2022-09-30T02:29:49.702Z,100484.97
2022-09-30T02:32:21.994Z,100490.13
2022-09-30T02:34:52.284Z,100483.84
2022-09-30T02:37:23.078Z,100487.41
2022-09-30T02:39:54.363Z,100491.56
2022-09-30T02:42:26.806Z,100488.88
2022-09-30T02:44:56.235Z,100500.41
2022-09-30T02:47:29.502Z,100495.75
2022-09-30T02:50:02.366Z,100491.72
2022-09-30T02:52:39.233Z,100490.03
2022-09-30T02:55:17.895Z,100497.25
2022-09-30T02:57:54.850Z,100495.66
2022-09-30T03:00:24.168Z,100498.09
2022-09-30T03:02:58.060Z,100494.78
2022-09-30T03:05:26.198Z,100498.34
2022-09-30T03:07:54.087Z,100499.31
2022-09-30T03:10:21.964Z,100511.84
2022-09-30T03:13:07.482Z,100515.66
2022-09-30T03:15:44.735Z,100516.59
2022-09-30T03:18:31.793Z,100516.50
2022-09-30T03:21:09.683Z,100521.66
2022-09-30T03:24:11.560Z,100516.25
2022-09-30T03:26:46.864Z,100516.25
2022-09-30T03:29:22.712Z,100517.84
2022-09-30T03:31:59.023Z,100522.75
2022-09-30T03:34:33.321Z,100529.38
2022-09-30T03:37:04.495Z,100530.47
2022-09-30T03:39:41.422Z,100521.13
2022-09-30T03:42:13.487Z,100521.00
2022-09-30T03:44:45.663Z,100515.50
2022-09-30T03:47:16.246Z,100519.16
2022-09-30T03:49:49.154Z,100515.34
2022-09-30T03:52:17.602Z,100520.75
2022-09-30T03:54:47.436Z,100525.41
2022-09-30T03:57:15.498Z,100528.25
2022-09-30T03:59:43.457Z,100525.44
2022-09-30T04:02:13.466Z,100535.47
2022-09-30T04:04:42.065Z,100524.06
2022-09-30T04:07:11.719Z,100529.56
2022-09-30T04:09:40.325Z,100535.97
2022-09-30T04:12:08.868Z,100538.91
2022-09-30T04:14:36.970Z,100547.25
2022-09-30T04:17:05.317Z,100548.84
2022-09-30T04:19:38.281Z,100552.41
2022-09-30T04:22:06.194Z,100551.66
2022-09-30T04:24:36.115Z,100559.16
2022-09-30T04:27:04.474Z,100560.88
2022-09-30T04:29:32.445Z,100556.69
2022-09-30T04:32:00.377Z,100557.56
2022-09-30T04:34:28.274Z,100569.19
2022-09-30T04:36:56.201Z,100574.13
2022-09-30T04:39:24.139Z,100578.41
2022-09-30T04:41:54.002Z,100577.66
2022-09-30T04:44:22.765Z,100576.06
2022-09-30T04:46:51.258Z,100578.28
2022-09-30T04:49:19.352Z,100582.94
2022-09-30T04:51:47.464Z,100583.91
2022-09-30T04:54:16.623Z,100589.91
2022-09-30T04:56:44.565Z,100595.19
2022-09-30T04:59:13.966Z,100599.50
2022-09-30T05:01:43.491Z,100598.25
2022-09-30T05:04:12.348Z,100593.22
2022-09-30T05:06:40.962Z,100594.81
2022-09-30T05:09:09.130Z,100602.53
2022-09-30T05:11:38.180Z,100600.72
2022-09-30T05:14:08.857Z,100594.06
2022-09-30T05:16:38.359Z,100600.22
2022-09-30T05:19:06.498Z,100607.22
2022-09-30T05:21:35.559Z,100614.09
2022-09-30T05:24:03.679Z,100610.63
2022-09-30T05:26:32.382Z,100622.41
2022-09-30T05:29:00.247Z,100625.09
2022-09-30T05:31:28.335Z,100612.50
2022-09-30T05:33:58.379Z,100615.69
2022-09-30T05:36:26.389Z,100617.28
2022-09-30T05:38:54.675Z,100611.25
2022-09-30T05:41:22.750Z,100612.72
2022-09-30T05:43:50.630Z,100605.84
2022-09-30T05:46:19.598Z,100603.41
2022-09-30T05:48:47.922Z,100610.78
2022-09-30T05:51:17.329Z,100612.72
2022-09-30T05:53:45.201Z,100616.41
2022-09-30T05:56:13.302Z,100617.13
2022-09-30T05:58:42.289Z,100623.63
2022-09-30T06:01:14.163Z,100627.22
2022-09-30T06:03:42.754Z,100633.72
2022-09-30T06:06:11.277Z,100640.94
2022-09-30T06:08:41.448Z,100639.34
2022-09-30T06:11:11.986Z,100636.91
2022-09-30T06:13:40.821Z,100645.47
2022-09-30T06:16:09.386Z,100644.91
2022-09-30T06:18:41.153Z,100637.53
2022-09-30T06:21:11.642Z,100635.81
2022-09-30T06:23:41.623Z,100633.97
2022-09-30T06:26:11.786Z,100634.59
2022-09-30T06:28:40.052Z,100637.63
2022-09-30T06:31:08.702Z,100642.56
2022-09-30T06:33:36.750Z,100649.44
2022-09-30T06:36:05.130Z,100652.63
2022-09-30T06:38:33.128Z,100646.34
2022-09-30T06:41:02.544Z,100653.97
2022-09-30T06:43:32.917Z,100644.63
2022-09-30T06:46:16.525Z,100655.91
2022-09-30T06:48:48.418Z,100646.59
2022-09-30T06:51:17.234Z,100648.75
2022-09-30T06:53:45.145Z,100650.50
2022-09-30T06:56:14.889Z,100647.16
2022-09-30T06:58:43.002Z,100652.81
2022-09-30T07:01:14.667Z,100656.34
2022-09-30T07:03:44.324Z,100652.81
2022-09-30T07:06:14.069Z,100655.59
2022-09-30T07:08:42.421Z,100653.09
2022-09-30T07:11:14.419Z,100659.59
2022-09-30T07:13:45.948Z,100661.16
2022-09-30T07:16:14.058Z,100665.06
2022-09-30T07:18:43.235Z,100667.91
2022-09-30T07:21:12.306Z,100671.41
2022-09-30T07:23:45.726Z,100672.81
2022-09-30T07:26:13.652Z,100676.69
2022-09-30T07:28:43.728Z,100671.97
2022-09-30T07:31:31.795Z,100674.84
2022-09-30T07:34:01.005Z,100676.97
2022-09-30T07:36:33.107Z,100681.66
2022-09-30T07:39:06.198Z,100681.63
2022-09-30T07:41:37.937Z,100668.75
2022-09-30T07:44:09.830Z,100675.50
2022-09-30T07:46:40.040Z,100680.03
2022-09-30T07:49:09.486Z,100675.88
2022-09-30T07:51:38.722Z,100678.06
2022-09-30T07:54:09.275Z,100673.91
2022-09-30T07:57:05.501Z,100684.59
2022-09-30T07:59:28.870Z,100680.75
2022-09-30T08:01:57.129Z,100682.69
2022-09-30T08:04:26.990Z,100677.28
2022-09-30T08:06:56.931Z,100686.00
2022-09-30T08:09:26.611Z,100684.91
2022-09-30T08:11:54.660Z,100690.91
2022-09-30T08:14:24.657Z,100690.22
2022-09-30T08:16:55.838Z,100695.53
2022-09-30T08:19:25.412Z,100684.81
2022-09-30T08:21:54.317Z,100687.44
2022-09-30T08:24:22.871Z,100681.63
2022-09-30T08:26:52.207Z,100682.59
2022-09-30T08:29:35.865Z,100688.22
2022-09-30T08:32:09.726Z,100693.50
2022-09-30T08:34:37.647Z,100695.63
2022-09-30T08:37:09.313Z,100700.91
2022-09-30T08:39:37.563Z,100709.22
2022-09-30T08:42:37.743Z,100704.50
2022-09-30T08:45:14.460Z,100701.97
2022-09-30T08:47:48.942Z,100714.25
2022-09-30T08:50:21.184Z,100711.06
2022-09-30T08:52:51.691Z,100719.22
2022-09-30T08:55:22.719Z,100713.81
2022-09-30T08:57:51.203Z,100717.13
2022-09-30T09:00:20.381Z,100728.31
2022-09-30T09:02:52.971Z,100721.06
2022-09-30T09:05:33.218Z,100722.78
2022-09-30T09:08:06.351Z,100732.78
2022-09-30T09:10:41.306Z,100730.47
2022-09-30T09:13:18.256Z,100727.59
2022-09-30T09:15:58.377Z,100735.19
2022-09-30T09:18:45.138Z,100730.31
2022-09-30T09:21:25.082Z,100733.81
2022-09-30T09:23:54.694Z,100726.88
2022-09-30T09:26:22.722Z,100734.38
2022-09-30T09:29:01.173Z,100738.81
2022-09-30T09:31:29.163Z,100743.09
2022-09-30T09:34:02.563Z,100749.75
2022-09-30T09:36:40.497Z,100750.63
2022-09-30T09:39:18.752Z,100748.00
2022-09-30T09:41:52.695Z,100752.09
2022-09-30T09:44:26.460Z,100753.94
2022-09-30T09:46:57.393Z,100753.22
2022-09-30T09:49:35.072Z,100752.75
2022-09-30T09:52:35.903Z,100750.41
2022-09-30T09:55:04.097Z,100757.16
2022-09-30T09:57:32.560Z,100754.53
2022-09-30T10:00:21.953Z,100752.72
2022-09-30T10:03:04.027Z,100754.63
2022-09-30T10:05:39.707Z,100755.78
2022-09-30T10:08:14.694Z,100750.69
2022-09-30T10:10:48.774Z,100748.78
2022-09-30T10:13:18.855Z,100753.28
2022-09-30T10:15:47.326Z,100752.72
2022-09-30T10:18:25.195Z,100749.69
2022-09-30T10:20:57.361Z,100759.09
2022-09-30T10:23:29.395Z,100758.22
2022-09-30T10:26:04.850Z,100761.59
2022-09-30T10:28:35.966Z,100758.22
2022-09-30T10:31:06.532Z,100758.34
2022-09-30T10:33:37.749Z,100754.59
2022-09-30T10:36:16.122Z,100761.69
2022-09-30T10:38:58.943Z,100763.81
2022-09-30T10:41:31.928Z,100751.94
2022-09-30T10:44:01.699Z,100760.75
2022-09-30T10:46:31.986Z,100763.41
2022-09-30T10:49:00.525Z,100755.28
2022-09-30T10:51:33.912Z,100759.28
2022-09-30T10:54:02.019Z,100763.63
2022-09-30T10:56:44.733Z,100762.09
2022-09-30T10:59:23.903Z,100759.78
2022-09-30T11:01:58.047Z,100769.03
2022-09-30T11:04:31.986Z,100764.63
2022-09-30T11:07:12.922Z,100758.59
2022-09-30T11:09:47.820Z,100760.75
2022-09-30T11:12:20.661Z,100759.25
2022-09-30T11:14:55.021Z,100760.16
2022-09-30T11:17:32.286Z,100759.19
2022-09-30T11:20:09.372Z,100750.81
2022-09-30T11:22:45.369Z,100758.13
2022-09-30T11:25:15.803Z,100755.44
2022-09-30T11:28:04.292Z,100758.66
2022-09-30T11:30:34.686Z,100755.97
2022-09-30T11:33:12.574Z,100754.47
2022-09-30T11:35:52.684Z,100747.63
2022-09-30T11:38:33.499Z,100746.63
2022-09-30T11:41:06.405Z,100748.06
2022-09-30T11:43:42.464Z,100751.50
2022-09-30T11:46:24.700Z,100738.22
2022-09-30T11:49:05.170Z,100738.91
2022-09-30T11:51:39.489Z,100739.25
2022-09-30T11:54:23.008Z,100735.47
2022-09-30T11:56:53.730Z,100741.31
2022-09-30T11:59:24.509Z,100743.50
2022-09-30T12:01:55.520Z,100739.91
2022-09-30T12:04:29.601Z,100742.31
2022-09-30T12:06:59.898Z,100742.34
2022-09-30T12:09:33.181Z,100744.03
2022-09-30T12:12:03.319Z,100744.31
2022-09-30T12:14:36.417Z,100749.41
2022-09-30T12:17:09.453Z,100747.94
2022-09-30T12:19:42.703Z,100753.06
2022-09-30T12:22:14.523Z,100754.97
2022-09-30T12:24:45.657Z,100740.28
2022-09-30T12:27:18.074Z,100747.81
2022-09-30T12:30:10.631Z,100736.34
2022-09-30T12:33:07.695Z,100751.03
2022-09-30T12:36:00.011Z,100752.88
2022-09-30T12:38:49.271Z,100755.94
2022-09-30T12:41:31.490Z,100753.66
2022-09-30T12:44:35.511Z,100745.88
2022-09-30T12:47:15.715Z,100743.97
2022-09-30T12:49:44.366Z,100742.84
2022-09-30T12:52:17.240Z,100747.44
2022-09-30T12:54:50.007Z,100748.44
2022-09-30T12:57:22.410Z,100747.59
2022-09-30T12:59:55.004Z,100735.50
2022-09-30T13:02:31.823Z,100731.59
2022-09-30T13:05:33.213Z,100733.19
2022-09-30T13:08:11.312Z,100730.53
2022-09-30T13:10:47.173Z,100729.47
2022-09-30T13:13:23.857Z,100737.53
2022-09-30T13:15:52.546Z,100735.03
2022-09-30T13:19:12.322Z,100735.63
2022-09-30T13:21:40.229Z,100733.69
2022-09-30T13:24:09.263Z,100721.97
2022-09-30T13:26:49.369Z,100718.91
2022-09-30T13:29:51.723Z,100716.69
2022-09-30T13:32:33.937Z,100731.69
2022-09-30T13:35:02.138Z,100733.28
2022-09-30T13:37:40.895Z,100726.06
2022-09-30T13:40:37.502Z,100723.06
2022-09-30T13:43:12.217Z,100719.47
2022-09-30T13:45:42.560Z,100714.44
2022-09-30T13:48:13.735Z,100712.22
2022-09-30T13:50:46.549Z,100710.34
2022-09-30T13:53:21.071Z,100703.91
2022-09-30T13:55:53.729Z,100708.59
2022-09-30T13:58:39.414Z,100711.16
2022-09-30T14:01:17.070Z,100705.16
2022-09-30T14:04:00.258Z,100708.75
2022-09-30T14:06:37.671Z,100708.41
2022-09-30T14:09:16.273Z,100702.28
2022-09-30T14:12:06.310Z,100698.41
2022-09-30T14:14:48.386Z,100706.63
2022-09-30T14:17:31.157Z,100704.66
2022-09-30T14:20:20.149Z,100695.63
2022-09-30T14:22:48.738Z,100697.41
2022-09-30T14:25:18.836Z,100700.50
2022-09-30T14:27:58.120Z,100701.31
2022-09-30T14:30:27.469Z,100703.50
2022-09-30T14:32:58.454Z,100697.03
2022-09-30T14:35:29.121Z,100700.31
2022-09-30T14:38:00.106Z,100693.97
2022-09-30T14:40:29.892Z,100695.00
2022-09-30T14:43:02.927Z,100695.72
2022-09-30T14:45:33.606Z,100701.97
2022-09-30T14:48:06.850Z,100701.69
2022-09-30T14:50:38.134Z,100705.25
2022-09-30T14:53:06.782Z,100695.16
2022-09-30T14:55:38.027Z,100689.88
2022-09-30T14:58:28.385Z,100691.78
2022-09-30T15:01:02.945Z,100688.28
2022-09-30T15:03:34.923Z,100686.50
2022-09-30T15:06:03.265Z,100689.00
2022-09-30T15:08:31.209Z,100686.63
2022-09-30T15:10:59.324Z,100693.16
2022-09-30T15:13:31.181Z,100687.50
2022-09-30T15:15:59.204Z,100680.63
2022-09-30T15:18:33.860Z,100680.16
2022-09-30T15:21:08.646Z,100684.53
2022-09-30T15:23:38.542Z,100679.41
2022-09-30T15:26:07.255Z,100683.88
2022-09-30T15:28:36.825Z,100677.19
2022-09-30T15:31:05.358Z,100674.88
2022-09-30T15:33:35.452Z,100673.16
2022-09-30T15:36:06.731Z,100675.53
2022-09-30T15:38:35.986Z,100668.53
2022-09-30T15:41:06.417Z,100677.78
2022-09-30T15:43:37.434Z,100680.34
2022-09-30T15:46:21.535Z,100673.50
2022-09-30T15:48:50.974Z,100675.19
2022-09-30T15:51:30.092Z,100673.63
2022-09-30T15:54:00.482Z,100670.38
2022-09-30T15:56:35.547Z,100666.16
2022-09-30T15:59:06.145Z,100679.63
2022-09-30T16:01:36.610Z,100677.09
2022-09-30T16:04:10.872Z,100675.69
2022-09-30T16:06:45.581Z,100677.19
2022-09-30T16:09:27.233Z,100673.53
2022-09-30T16:12:06.514Z,100674.28
2022-09-30T16:14:37.424Z,100671.25
2022-09-30T16:17:05.995Z,100669.75
2022-09-30T16:19:35.583Z,100668.72
2022-09-30T16:22:03.534Z,100674.97
2022-09-30T16:24:48.607Z,100680.69
2022-09-30T16:27:31.624Z,100675.88
2022-09-30T16:30:00.276Z,100673.47
2022-09-30T16:32:29.690Z,100670.78
2022-09-30T16:34:59.487Z,100676.22
2022-09-30T16:37:27.549Z,100676.47
2022-09-30T16:39:57.708Z,100669.94
2022-09-30T16:42:25.598Z,100664.69
2022-09-30T16:44:53.878Z,100666.16
2022-09-30T16:47:22.159Z,100675.75
2022-09-30T16:49:51.131Z,100684.59
2022-09-30T16:52:20.411Z,100673.50
2022-09-30T16:54:48.317Z,100682.38
2022-09-30T16:57:17.030Z,100670.06
2022-09-30T16:59:45.477Z,100667.03
2022-09-30T17:02:15.549Z,100672.47
2022-09-30T17:04:45.402Z,100676.59
2022-09-30T17:07:15.037Z,100675.44
2022-09-30T17:09:47.396Z,100674.91
2022-09-30T17:12:15.579Z,100683.84
2022-09-30T17:14:43.938Z,100678.13
2022-09-30T17:17:13.570Z,100673.94
2022-09-30T17:19:42.162Z,100682.16
2022-09-30T17:22:10.147Z,100676.41
2022-09-30T17:24:38.422Z,100683.28
2022-09-30T17:27:07.893Z,100686.41
2022-09-30T17:29:41.690Z,100681.00
2022-09-30T17:32:10.376Z,100677.50
2022-09-30T17:34:38.283Z,100678.25
2022-09-30T17:39:39.249Z,100677.34
2022-09-30T17:42:28.649Z,100683.53
2022-09-30T17:44:57.441Z,100675.13
2022-09-30T17:47:26.823Z,100681.38
2022-09-30T17:49:55.150Z,100675.97
2022-09-30T17:52:23.849Z,100678.22
2022-09-30T17:54:52.644Z,100678.59
2022-09-30T17:57:22.554Z,100673.88
2022-09-30T17:59:50.412Z,100672.19
2022-09-30T18:02:18.595Z,100667.47
2022-09-30T18:04:46.588Z,100661.94
2022-09-30T18:07:14.540Z,100665.78
2022-09-30T18:09:42.447Z,100664.94
2022-09-30T18:12:10.338Z,100666.94
2022-09-30T18:14:39.755Z,100662.63
2022-09-30T18:17:07.915Z,100664.63
2022-09-30T18:19:36.283Z,100666.38
2022-09-30T18:22:04.226Z,100659.53
2022-09-30T18:24:49.653Z,100666.81
2022-09-30T18:27:17.527Z,100659.97
2022-09-30T18:29:46.869Z,100658.25
2022-09-30T18:32:17.508Z,100654.97
2022-09-30T18:34:45.447Z,100652.38
2022-09-30T18:37:13.329Z,100654.38
2022-09-30T18:39:41.257Z,100655.53
2022-09-30T18:42:09.402Z,100645.53
2022-09-30T18:44:38.170Z,100643.81
2022-09-30T18:47:08.644Z,100639.13
2022-09-30T18:49:36.580Z,100646.66
2022-09-30T18:52:04.683Z,100651.94
2022-09-30T18:54:33.731Z,100645.97
2022-09-30T18:57:01.637Z,100645.50
2022-09-30T18:59:29.700Z,100641.53
2022-09-30T19:01:59.779Z,100641.81
2022-09-30T19:04:29.146Z,100634.97
2022-09-30T19:06:57.039Z,100633.41
2022-09-30T19:09:26.707Z,100632.13
2022-09-30T19:11:55.538Z,100632.25
2022-09-30T19:14:23.801Z,100630.81
2022-09-30T19:16:52.467Z,100629.09
2022-09-30T19:19:22.857Z,100627.53
2022-09-30T19:21:52.195Z,100630.25
2022-09-30T19:24:22.972Z,100629.09
2022-09-30T19:26:54.778Z,100629.66
2022-09-30T19:29:23.587Z,100630.94
2022-09-30T19:31:51.557Z,100613.97
2022-09-30T19:34:31.058Z,100625.25
2022-09-30T19:37:01.608Z,100621.69
2022-09-30T19:39:40.845Z,100616.25
2022-09-30T19:42:15.129Z,100613.94
2022-09-30T19:44:43.035Z,100617.50
2022-09-30T19:47:11.141Z,100614.97
2022-09-30T19:49:39.070Z,100613.94
2022-09-30T19:52:17.058Z,100610.53
2022-09-30T19:54:47.133Z,100601.41
2022-09-30T19:57:15.017Z,100594.97
2022-09-30T19:59:42.946Z,100590.41
2022-09-30T20:02:11.359Z,100595.13
2022-09-30T20:04:39.745Z,100595.81
2022-09-30T20:07:09.036Z,100589.28
2022-09-30T20:09:36.973Z,100587.81
2022-09-30T20:12:07.144Z,100582.13
2022-09-30T20:15:06.853Z,100584.13
2022-09-30T20:17:34.854Z,100579.53
2022-09-30T20:20:20.174Z,100577.09
2022-09-30T20:22:49.481Z,100569.72
2022-09-30T20:25:17.449Z,100571.28
2022-09-30T20:27:51.107Z,100566.25
2022-09-30T20:30:20.483Z,100563.25
2022-09-30T20:32:48.577Z,100565.81
2022-09-30T20:35:16.594Z,100571.41
2022-09-30T20:37:44.506Z,100567.97
2022-09-30T20:40:13.777Z,100566.41
2022-09-30T20:42:41.755Z,100561.69
2022-09-30T20:45:11.074Z,100552.28
2022-09-30T20:47:39.773Z,100555.41
2022-09-30T20:50:08.769Z,100553.56
2022-09-30T20:52:36.678Z,100552.72
2022-09-30T20:55:06.027Z,100545.00
2022-09-30T20:57:35.325Z,100554.97
2022-09-30T21:00:03.267Z,100554.28
2022-09-30T21:02:31.173Z,100539.44
2022-09-30T21:04:59.675Z,100552.09
2022-09-30T21:07:28.100Z,100545.28
2022-09-30T21:09:56.021Z,100545.56
2022-09-30T21:12:23.937Z,100549.72
2022-09-30T21:14:53.185Z,100539.00
2022-09-30T21:17:21.371Z,100545.00
2022-09-30T21:19:49.254Z,100534.28
2022-09-30T21:22:17.227Z,100537.00
2022-09-30T21:24:45.358Z,100529.31
2022-09-30T21:27:13.809Z,100532.88
2022-09-30T21:29:41.806Z,100524.47
2022-09-30T21:32:11.129Z,100528.00
2022-09-30T21:34:39.840Z,100524.16
2022-09-30T21:37:07.734Z,100519.63
2022-09-30T21:39:35.811Z,100514.19
2022-09-30T21:42:04.674Z,100516.03
2022-09-30T21:44:32.562Z,100513.22
2022-09-30T21:47:00.643Z,100521.91
2022-09-30T21:49:29.906Z,100502.22
2022-09-30T21:51:57.810Z,100506.50
2022-09-30T21:54:25.787Z,100514.38
2022-09-30T21:56:53.680Z,100505.97
2022-09-30T21:59:21.553Z,100501.41
2022-09-30T22:01:49.558Z,100502.97
2022-09-30T22:04:19.501Z,100496.44
2022-09-30T22:06:48.813Z,100489.00
2022-09-30T22:09:16.779Z,100491.44
2022-09-30T22:11:44.718Z,100490.41
2022-09-30T22:14:12.683Z,100490.41
2022-09-30T22:16:40.586Z,100493.72
2022-09-30T22:19:10.074Z,100489.44
2022-09-30T22:21:38.632Z,100490.03
2022-09-30T22:24:09.177Z,100475.63
2022-09-30T22:26:37.955Z,100479.03
2022-09-30T22:29:08.028Z,100480.59
2022-09-30T22:31:36.511Z,100468.75
2022-09-30T22:34:26.011Z,100469.91
2022-09-30T22:37:11.654Z,100475.75
2022-09-30T22:39:40.932Z,100465.78
2022-09-30T22:42:08.830Z,100464.47
2022-09-30T22:44:38.041Z,100470.75
2022-09-30T22:47:06.409Z,100466.63
2022-09-30T22:49:34.341Z,100458.19
2022-09-30T22:52:03.810Z,100457.06
2022-09-30T22:54:32.210Z,100455.50
2022-09-30T22:57:01.588Z,100449.22
2022-09-30T22:59:30.545Z,100449.66
2022-09-30T23:01:58.753Z,100443.53
2022-09-30T23:04:27.064Z,100446.81
2022-09-30T23:06:56.437Z,100437.84
2022-09-30T23:09:24.631Z,100436.53
2022-09-30T23:11:53.706Z,100439.53
2022-09-30T23:14:23.375Z,100431.28
2022-09-30T23:16:51.768Z,100427.97
2022-09-30T23:19:19.849Z,100428.28
2022-09-30T23:21:47.922Z,100417.47
2022-09-30T23:24:16.142Z,100424.56
2022-09-30T23:26:44.639Z,100407.47
2022-09-30T23:29:13.566Z,100404.75
2022-09-30T23:31:43.033Z,100404.63
2022-09-30T23:34:11.120Z,100399.22
2022-09-30T23:36:39.238Z,100400.19
2022-09-30T23:39:09.375Z,100393.38
2022-09-30T23:41:37.574Z,100391.81
2022-09-30T23:44:05.966Z,100388.94
2022-09-30T23:46:33.858Z,100387.25
2022-09-30T23:49:03.129Z,100387.38
2022-09-30T23:51:34.503Z,100384.22
2022-09-30T23:54:03.073Z,100372.00
2022-09-30T23:56:32.131Z,100373.72
2022-09-30T23:59:00.172Z,100365.44
